createdAt,value
2018-09-14T00:01:32.006Z,70.12
2018-09-14T00:04:01.036Z,70.06
2018-09-14T00:06:29.351Z,69.50
2018-09-14T00:08:57.829Z,69.58
2018-09-14T00:11:26.263Z,70.31
2018-09-14T00:13:55.131Z,70.23
2018-09-14T00:16:23.544Z,69.43
2018-09-14T00:18:52.159Z,69.44
2018-09-14T00:21:20.565Z,69.42
2018-09-14T00:23:49.023Z,69.75
2018-09-14T00:26:17.456Z,69.35
2018-09-14T00:28:45.888Z,69.34
2018-09-14T00:31:14.734Z,68.92
2018-09-14T00:33:43.686Z,69.11
2018-09-14T00:36:12.053Z,68.94
2018-09-14T00:38:40.577Z,69.58
2018-09-14T00:41:09.116Z,69.61
2018-09-14T00:43:37.515Z,69.88
2018-09-14T00:46:06.216Z,69.67
2018-09-14T00:48:34.929Z,69.82
2018-09-14T00:51:03.372Z,70.16
2018-09-14T00:53:32.295Z,70.46
2018-09-14T00:56:00.776Z,70.56
2018-09-14T00:58:29.213Z,70.29
2018-09-14T01:00:57.585Z,70.64
2018-09-14T01:03:26.154Z,69.97
2018-09-14T01:05:54.587Z,70.19
2018-09-14T01:08:23.664Z,69.64
2018-09-14T01:10:52.202Z,69.37
2018-09-14T01:13:20.761Z,69.76
2018-09-14T01:15:49.330Z,69.32
2018-09-14T01:18:17.819Z,69.10
2018-09-14T01:20:46.519Z,69.38
2018-09-14T01:23:14.905Z,69.29
2018-09-14T01:25:43.374Z,68.83
2018-09-14T01:28:12.744Z,69.62
2018-09-14T01:30:41.186Z,69.87
2018-09-14T01:33:09.777Z,69.59
2018-09-14T01:35:43.423Z,69.85
2018-09-14T01:38:11.767Z,69.99
2018-09-14T01:40:40.164Z,69.92
2018-09-14T01:43:08.696Z,69.89
2018-09-14T01:45:37.153Z,69.63
2018-09-14T01:48:05.506Z,70.17
2018-09-14T01:50:33.826Z,70.09
2018-09-14T01:53:02.258Z,70.40
2018-09-14T01:55:32.297Z,70.52
2018-09-14T01:58:00.640Z,70.56
2018-09-14T02:00:28.984Z,70.29
2018-09-14T02:02:57.331Z,70.19
2018-09-14T02:05:25.678Z,70.24
2018-09-14T02:07:56.338Z,69.99
2018-09-14T02:10:24.925Z,69.93
2018-09-14T02:12:54.167Z,70.12
2018-09-14T02:15:23.141Z,70.27
2018-09-14T02:17:51.512Z,70.00
2018-09-14T02:20:20.206Z,70.14
2018-09-14T02:22:49.714Z,70.24
2018-09-14T02:25:20.062Z,70.31
2018-09-14T02:27:49.741Z,70.08
2018-09-14T02:30:18.332Z,70.44
2018-09-14T02:32:46.664Z,70.29
2018-09-14T02:35:15.107Z,69.99
2018-09-14T02:37:43.520Z,70.40
2018-09-14T02:40:11.877Z,70.25
2018-09-14T02:42:40.340Z,70.00
2018-09-14T02:45:08.758Z,70.09
2018-09-14T02:47:37.193Z,70.20
2018-09-14T02:50:05.589Z,70.44
2018-09-14T02:52:35.344Z,70.28
2018-09-14T02:55:03.852Z,70.75
2018-09-14T02:57:32.167Z,70.27
2018-09-14T03:00:00.690Z,70.58
2018-09-14T03:02:29.016Z,70.50
2018-09-14T03:04:57.363Z,70.51
2018-09-14T03:07:25.760Z,70.42
2018-09-14T03:09:54.208Z,70.88
2018-09-14T03:12:24.129Z,70.72
2018-09-14T03:14:52.567Z,70.71
2018-09-14T03:17:20.952Z,70.83
2018-09-14T03:19:49.373Z,71.04
2018-09-14T03:22:17.813Z,70.60
2018-09-14T03:24:48.191Z,70.67
2018-09-14T03:27:16.575Z,70.50
2018-09-14T03:29:46.513Z,70.76
2018-09-14T03:32:15.056Z,71.27
2018-09-14T03:34:43.340Z,70.91
2018-09-14T03:37:11.936Z,70.09
2018-09-14T03:39:42.816Z,70.15
2018-09-14T03:42:11.268Z,70.06
2018-09-14T03:44:40.718Z,70.68
2018-09-14T03:47:09.095Z,70.48
2018-09-14T03:49:37.526Z,70.22
2018-09-14T03:52:06.118Z,70.05
2018-09-14T03:54:34.472Z,69.79
2018-09-14T03:57:05.091Z,69.81
2018-09-14T03:59:36.477Z,69.35
2018-09-14T04:02:05.783Z,69.00
2018-09-14T04:04:34.492Z,68.77
2018-09-14T04:07:02.958Z,68.93
2018-09-14T04:09:32.048Z,68.72
2018-09-14T04:12:00.764Z,68.20
2018-09-14T04:14:29.276Z,68.52
2018-09-14T04:16:57.649Z,68.46
2018-09-14T04:19:25.968Z,68.37
2018-09-14T04:21:54.504Z,68.36
2018-09-14T04:24:22.964Z,68.02
2018-09-14T04:26:51.432Z,67.63
2018-09-14T04:29:20.607Z,67.79
2018-09-14T04:31:48.986Z,67.45
2018-09-14T04:34:17.319Z,67.36
2018-09-14T04:36:45.770Z,67.89
2018-09-14T04:39:14.192Z,67.93
2018-09-14T04:41:42.641Z,68.15
2018-09-14T04:44:11.109Z,68.10
2018-09-14T04:46:39.542Z,68.04
2018-09-14T04:49:07.923Z,68.12
2018-09-14T04:51:37.811Z,68.47
2018-09-14T04:54:06.221Z,68.20
2018-09-14T04:56:34.567Z,69.14
2018-09-14T04:59:03.021Z,69.64
2018-09-14T05:01:31.331Z,69.54
2018-09-14T05:03:59.761Z,69.50
2018-09-14T05:06:28.099Z,69.78
2018-09-14T05:08:56.429Z,70.17
2018-09-14T05:11:24.848Z,70.11
2018-09-14T05:13:53.421Z,70.48
2018-09-14T05:16:24.262Z,69.93
2018-09-14T05:18:52.656Z,70.63
2018-09-14T05:21:22.146Z,70.75
2018-09-14T05:23:50.495Z,70.33
2018-09-14T05:26:18.924Z,70.71
2018-09-14T05:28:47.312Z,71.25
2018-09-14T05:31:16.985Z,71.67
2018-09-14T05:33:45.304Z,71.63
2018-09-14T05:36:13.804Z,71.67
2018-09-14T05:38:42.145Z,71.91
2018-09-14T05:41:10.528Z,71.75
2018-09-14T05:43:39.027Z,71.88
2018-09-14T05:46:08.916Z,71.58
2018-09-14T05:48:37.265Z,71.87
2018-09-14T05:51:08.312Z,72.16
2018-09-14T05:53:36.708Z,72.28
2018-09-14T05:56:05.108Z,72.10
2018-09-14T05:58:33.497Z,71.94
2018-09-14T06:01:01.852Z,71.95
2018-09-14T06:03:30.224Z,72.44
2018-09-14T06:05:59.776Z,72.65
2018-09-14T06:08:28.217Z,72.41
2018-09-14T06:10:56.596Z,71.90
2018-09-14T06:13:25.175Z,71.73
2018-09-14T06:15:53.661Z,71.32
2018-09-14T06:18:24.469Z,71.23
2018-09-14T06:20:53.062Z,70.89
2018-09-14T06:23:21.405Z,71.26
2018-09-14T06:25:50.013Z,70.85
2018-09-14T06:28:18.371Z,70.68
2018-09-14T06:30:49.070Z,70.51
2018-09-14T06:33:17.499Z,71.31
2018-09-14T06:35:45.997Z,71.41
2018-09-14T06:38:14.353Z,71.47
2018-09-14T06:40:43.943Z,71.55
2018-09-14T06:43:12.829Z,71.35
2018-09-14T06:45:41.419Z,70.89
2018-09-14T06:48:11.188Z,71.27
2018-09-14T06:50:39.575Z,71.40
2018-09-14T06:53:07.904Z,70.85
2018-09-14T06:55:37.639Z,70.47
2018-09-14T06:58:06.049Z,70.46
2018-09-14T07:00:36.669Z,70.71
2018-09-14T07:03:05.919Z,71.01
2018-09-14T07:05:34.440Z,70.29
2018-09-14T07:08:03.478Z,70.12
2018-09-14T07:10:32.001Z,70.33
2018-09-14T07:13:00.598Z,70.31
2018-09-14T07:15:30.369Z,70.39
2018-09-14T07:17:58.794Z,70.28
2018-09-14T07:20:27.198Z,70.66
2018-09-14T07:22:55.643Z,70.78
2018-09-14T07:25:24.042Z,70.51
2018-09-14T07:27:52.697Z,70.76
2018-09-14T07:30:21.082Z,70.25
2018-09-14T07:32:49.493Z,69.67
2018-09-14T07:35:18.138Z,69.23
2018-09-14T07:37:46.606Z,69.52
2018-09-14T07:40:15.000Z,69.55
2018-09-14T07:42:43.370Z,69.84
2018-09-14T07:45:13.216Z,69.41
2018-09-14T07:47:43.999Z,69.42
2018-09-14T07:50:13.437Z,69.88
2018-09-14T07:52:45.185Z,69.45
2018-09-14T07:55:13.553Z,69.36
2018-09-14T07:57:41.941Z,69.37
2018-09-14T08:00:10.283Z,69.81
2018-09-14T08:02:38.892Z,70.23
2018-09-14T08:05:07.295Z,69.71
2018-09-14T08:07:36.049Z,69.85
2018-09-14T08:10:05.634Z,69.67
2018-09-14T08:12:34.048Z,70.19
2018-09-14T08:15:02.450Z,70.10
2018-09-14T08:17:30.860Z,70.08
2018-09-14T08:19:59.377Z,70.33
2018-09-14T08:22:31.764Z,69.70
2018-09-14T08:25:00.157Z,69.50
2018-09-14T08:27:28.532Z,69.79
2018-09-14T08:29:56.885Z,69.94
2018-09-14T08:32:25.459Z,70.51
2018-09-14T08:34:56.260Z,69.79
2018-09-14T08:37:24.659Z,69.41
2018-09-14T08:39:53.615Z,69.45
2018-09-14T08:42:23.009Z,69.50
2018-09-14T08:44:51.360Z,69.42
2018-09-14T08:47:19.728Z,69.35
2018-09-14T08:49:50.219Z,69.43
2018-09-14T08:52:22.994Z,69.94
2018-09-14T08:54:51.316Z,70.33
2018-09-14T08:57:19.626Z,70.76
2018-09-14T08:59:53.657Z,70.85
2018-09-14T09:02:22.056Z,70.47
2018-09-14T09:04:50.397Z,70.74
2018-09-14T09:07:19.416Z,71.07
2018-09-14T09:09:47.748Z,70.99
2018-09-14T09:12:17.882Z,71.08
2018-09-14T09:14:46.339Z,70.45
2018-09-14T09:17:14.727Z,70.80
2018-09-14T09:19:43.103Z,70.20
2018-09-14T09:22:19.722Z,70.55
2018-09-14T09:24:48.169Z,70.67
2018-09-14T09:27:16.537Z,70.29
2018-09-14T09:29:44.951Z,70.18
2018-09-14T09:32:14.220Z,69.73
2018-09-14T09:34:42.544Z,69.66
2018-09-14T09:37:11.047Z,69.69
2018-09-14T09:39:40.458Z,69.34
2018-09-14T09:42:10.615Z,68.67
2018-09-14T09:44:39.175Z,69.37
2018-09-14T09:47:09.609Z,68.84
2018-09-14T09:49:37.967Z,68.70
2018-09-14T09:52:06.662Z,68.38
2018-09-14T09:54:35.013Z,67.86
2018-09-14T09:57:05.154Z,67.56
2018-09-14T09:59:33.779Z,67.64
2018-09-14T10:02:07.705Z,67.96
2018-09-14T10:04:45.543Z,67.70
2018-09-14T10:07:14.267Z,67.02
2018-09-14T10:09:42.588Z,67.34
2018-09-14T10:12:11.173Z,67.08
2018-09-14T10:14:40.217Z,67.69
2018-09-14T10:20:07.764Z,67.25
2018-09-14T10:22:54.497Z,66.84
2018-09-14T10:25:35.097Z,66.99
2018-09-14T10:28:14.292Z,67.35
2018-09-14T10:30:42.673Z,66.75
2018-09-14T10:33:11.065Z,66.15
2018-09-14T10:35:39.471Z,65.90
2018-09-14T10:38:07.905Z,66.32
2018-09-14T10:40:36.305Z,66.15
2018-09-14T10:43:04.706Z,66.49
2018-09-14T10:45:33.087Z,66.08
2018-09-14T10:48:01.531Z,66.00
2018-09-14T10:50:30.192Z,66.36
2018-09-14T10:52:58.563Z,66.30
2018-09-14T10:55:26.909Z,65.83
2018-09-14T10:57:55.537Z,66.32
2018-09-14T11:03:09.429Z,66.24
2018-09-14T11:05:38.164Z,65.43
2018-09-14T11:08:06.796Z,65.28
2018-09-14T11:10:51.059Z,65.32
2018-09-14T11:13:20.282Z,65.34
2018-09-14T11:15:48.877Z,64.96
2018-09-14T11:18:17.339Z,65.03
2018-09-14T11:20:45.731Z,65.15
2018-09-14T11:23:14.964Z,65.20
2018-09-14T11:25:43.478Z,65.19
2018-09-14T11:28:11.767Z,65.28
2018-09-14T11:30:40.199Z,64.79
2018-09-14T11:33:08.783Z,64.63
2018-09-14T11:35:37.228Z,63.97
2018-09-14T11:38:05.912Z,63.46
2018-09-14T11:40:34.276Z,63.34
2018-09-14T11:43:24.856Z,64.20
2018-09-14T11:45:53.530Z,63.82
2018-09-14T11:48:22.084Z,64.28
2018-09-14T11:50:50.437Z,63.77
2018-09-14T11:53:18.871Z,63.45
2018-09-14T11:55:47.300Z,63.34
2018-09-14T11:58:15.772Z,63.34
2018-09-14T12:00:45.103Z,63.33
2018-09-14T12:03:13.422Z,63.32
2018-09-14T12:05:41.757Z,62.72
2018-09-14T12:08:10.343Z,62.00
2018-09-14T12:10:38.724Z,61.33
2018-09-14T12:13:07.112Z,61.75
2018-09-14T12:15:35.627Z,61.51
2018-09-14T12:18:04.090Z,61.89
2018-09-14T12:20:32.446Z,61.96
2018-09-14T12:23:00.885Z,61.99
2018-09-14T12:25:29.300Z,62.29
2018-09-14T12:27:57.789Z,62.22
2018-09-14T12:30:26.318Z,62.36
2018-09-14T12:32:55.121Z,62.61
2018-09-14T12:35:23.446Z,62.47
2018-09-14T12:37:51.841Z,62.09
2018-09-14T12:40:20.179Z,61.82
2018-09-14T12:42:48.581Z,61.26
2018-09-14T12:45:16.933Z,61.58
2018-09-14T12:47:45.275Z,61.26
2018-09-14T12:50:13.737Z,60.79
2018-09-14T12:52:42.119Z,60.79
2018-09-14T12:55:10.573Z,61.29
2018-09-14T12:57:38.959Z,61.02
2018-09-14T13:00:08.008Z,61.00
2018-09-14T13:02:36.688Z,61.01
2018-09-14T13:05:05.335Z,60.50
2018-09-14T13:07:33.723Z,60.76
2018-09-14T13:10:02.065Z,60.77
2018-09-14T13:12:30.558Z,60.77
2018-09-14T13:14:59.166Z,60.59
2018-09-14T13:17:27.516Z,60.31
2018-09-14T13:19:55.895Z,59.87
2018-09-14T13:22:24.427Z,59.48
2018-09-14T13:24:52.831Z,59.92
2018-09-14T13:27:21.245Z,59.60
2018-09-14T13:29:49.657Z,60.08
2018-09-14T13:32:18.131Z,59.32
2018-09-14T13:34:46.586Z,59.26
2018-09-14T13:37:15.003Z,59.01
2018-09-14T13:39:43.419Z,58.86
2018-09-14T13:42:11.937Z,58.65
2018-09-14T13:44:40.344Z,58.12
2018-09-14T13:47:08.761Z,58.13
2018-09-14T13:49:37.167Z,58.46
2018-09-14T13:52:05.703Z,57.70
2018-09-14T13:54:34.088Z,57.25
2018-09-14T13:57:02.479Z,57.94
2018-09-14T13:59:30.894Z,57.49
2018-09-14T14:01:59.357Z,57.00
2018-09-14T14:04:27.783Z,56.53
2018-09-14T14:06:56.157Z,55.95
2018-09-14T14:09:24.567Z,56.05
2018-09-14T14:11:53.025Z,56.63
2018-09-14T14:14:21.499Z,55.75
2018-09-14T14:16:50.077Z,55.37
2018-09-14T14:19:18.501Z,55.54
2018-09-14T14:21:46.918Z,55.23
2018-09-14T14:24:15.365Z,55.28
2018-09-14T14:26:43.734Z,56.06
2018-09-14T14:29:12.209Z,55.56
2018-09-14T14:31:40.595Z,55.30
2018-09-14T14:34:09.323Z,56.06
2018-09-14T14:36:37.823Z,56.52
2018-09-14T14:39:08.424Z,56.22
2018-09-14T14:41:36.902Z,55.99
2018-09-14T14:44:05.507Z,55.86
2018-09-14T14:46:33.943Z,56.21
2018-09-14T14:49:02.646Z,55.96
2018-09-14T14:51:31.307Z,56.30
2018-09-14T14:53:59.679Z,56.43
2018-09-14T14:56:28.014Z,56.22
2018-09-14T14:58:56.503Z,56.07
2018-09-14T15:01:24.999Z,55.13
2018-09-14T15:03:53.434Z,55.30
2018-09-14T15:06:21.899Z,55.07
2018-09-14T15:08:50.283Z,54.68
2018-09-14T15:11:18.679Z,54.72
2018-09-14T15:13:59.904Z,54.32
2018-09-14T15:16:28.367Z,54.31
2018-09-14T15:22:00.888Z,53.76
2018-09-14T15:24:29.295Z,53.63
2018-09-14T15:26:57.669Z,54.00
2018-09-14T15:29:26.069Z,53.70
2018-09-14T15:31:54.413Z,53.41
2018-09-14T15:34:22.811Z,53.63
2018-09-14T15:36:51.843Z,53.64
2018-09-14T15:39:20.266Z,53.44
2018-09-14T15:41:48.658Z,53.72
2018-09-14T15:44:17.318Z,53.56
2018-09-14T15:46:45.703Z,53.85
2018-09-14T15:49:14.151Z,53.88
2018-09-14T15:51:42.677Z,53.86
2018-09-14T15:54:11.047Z,54.26
2018-09-14T15:56:39.424Z,54.52
2018-09-14T15:59:08.660Z,54.67
2018-09-14T16:01:37.007Z,54.25
2018-09-14T16:04:05.399Z,54.33
2018-09-14T16:06:33.923Z,54.71
2018-09-14T16:09:02.375Z,54.23
2018-09-14T16:11:30.779Z,54.70
2018-09-14T16:13:59.501Z,54.17
2018-09-14T16:16:27.847Z,54.33
2018-09-14T16:18:56.412Z,54.53
2018-09-14T16:21:24.808Z,54.50
2018-09-14T16:23:53.200Z,54.37
2018-09-14T16:26:22.119Z,54.47
2018-09-14T16:28:50.580Z,54.64
2018-09-14T16:31:19.008Z,55.28
2018-09-14T16:33:47.462Z,55.41
2018-09-14T16:36:15.875Z,55.61
2018-09-14T16:38:44.217Z,55.82
2018-09-14T16:41:12.563Z,55.68
2018-09-14T16:43:41.255Z,55.66
2018-09-14T16:46:10.743Z,55.77
2018-09-14T16:48:39.229Z,55.75
2018-09-14T16:51:07.663Z,55.36
2018-09-14T16:53:37.259Z,55.90
2018-09-14T16:56:05.651Z,56.06
2018-09-14T16:58:34.071Z,56.17
2018-09-14T17:01:02.515Z,56.65
2018-09-14T17:03:31.026Z,56.91
2018-09-14T17:05:59.517Z,56.78
2018-09-14T17:08:27.927Z,56.81
2018-09-14T17:10:56.578Z,56.86
2018-09-14T17:13:24.939Z,56.98
2018-09-14T17:15:53.384Z,57.17
2018-09-14T17:18:21.737Z,57.63
2018-09-14T17:20:50.176Z,58.07
2018-09-14T17:23:18.609Z,58.13
2018-09-14T17:25:46.999Z,58.26
2018-09-14T17:28:15.428Z,58.50
2018-09-14T17:30:43.836Z,58.35
2018-09-14T17:33:12.184Z,58.46
2018-09-14T17:35:40.842Z,58.49
2018-09-14T17:38:09.245Z,58.49
2018-09-14T17:40:37.580Z,59.48
2018-09-14T17:43:06.073Z,59.64
2018-09-14T17:45:34.408Z,60.13
2018-09-14T17:48:02.912Z,60.41
2018-09-14T17:50:31.334Z,60.40
2018-09-14T17:52:59.760Z,60.42
2018-09-14T17:55:28.165Z,60.63
2018-09-14T17:57:56.708Z,60.94
2018-09-14T18:00:25.105Z,61.28
2018-09-14T18:02:53.461Z,61.83
2018-09-14T18:05:21.853Z,62.55
2018-09-14T18:07:50.276Z,62.52
2018-09-14T18:10:18.636Z,63.07
2018-09-14T18:12:47.101Z,63.40
2018-09-14T18:15:15.490Z,63.76
2018-09-14T18:17:43.874Z,64.07
2018-09-14T18:20:12.325Z,64.03
2018-09-14T18:22:40.852Z,63.85
2018-09-14T18:25:09.414Z,63.41
2018-09-14T18:27:37.871Z,63.50
2018-09-14T18:30:06.418Z,63.52
2018-09-14T18:32:34.734Z,63.15
2018-09-14T18:35:03.524Z,63.28
2018-09-14T18:37:31.940Z,63.24
2018-09-14T18:40:00.767Z,63.58
2018-09-14T18:42:29.240Z,63.69
2018-09-14T18:44:57.631Z,63.91
2018-09-14T18:47:26.047Z,64.09
2018-09-14T18:49:54.608Z,64.26
2018-09-14T18:52:22.973Z,64.53
2018-09-14T18:54:51.451Z,65.08
2018-09-14T18:57:19.970Z,64.95
2018-09-14T18:59:48.337Z,65.15
2018-09-14T19:02:16.741Z,65.17
2018-09-14T19:04:45.627Z,65.35
2018-09-14T19:07:14.075Z,65.40
2018-09-14T19:09:42.461Z,65.24
2018-09-14T19:12:10.854Z,65.32
2018-09-14T19:14:39.247Z,65.28
2018-09-14T19:17:07.704Z,65.40
2018-09-14T19:19:36.168Z,65.30
2018-09-14T19:22:04.544Z,65.62
2018-09-14T19:24:32.989Z,65.01
2018-09-14T19:27:01.512Z,65.54
2018-09-14T19:29:29.979Z,65.77
2018-09-14T19:31:58.328Z,65.75
2018-09-14T19:34:26.792Z,65.81
2018-09-14T19:36:55.159Z,65.44
2018-09-14T19:39:24.059Z,65.45
2018-09-14T19:41:52.535Z,65.39
2018-09-14T19:44:20.905Z,65.55
2018-09-14T19:46:49.355Z,65.45
2018-09-14T19:49:17.821Z,65.29
2018-09-14T19:51:46.228Z,65.73
2018-09-14T19:54:14.726Z,65.67
2018-09-14T19:56:43.332Z,65.39
2018-09-14T19:59:11.721Z,65.40
2018-09-14T20:01:40.160Z,65.62
2018-09-14T20:04:08.671Z,65.80
2018-09-14T20:06:37.017Z,66.06
2018-09-14T20:09:09.533Z,65.97
2018-09-14T20:11:38.010Z,65.36
2018-09-14T20:14:06.323Z,65.29
2018-09-14T20:16:34.751Z,65.85
2018-09-14T20:19:03.104Z,66.09
2018-09-14T20:21:31.479Z,65.76
2018-09-14T20:24:00.060Z,66.27
2018-09-14T20:26:28.710Z,66.58
2018-09-14T20:28:57.321Z,66.58
2018-09-14T20:31:25.807Z,66.62
2018-09-14T20:33:54.240Z,66.91
2018-09-14T20:36:22.704Z,66.61
2018-09-14T20:38:51.352Z,66.53
2018-09-14T20:41:19.725Z,67.05
2018-09-14T20:43:48.113Z,66.80
2018-09-14T20:46:16.531Z,67.05
2018-09-14T20:48:44.878Z,66.58
2018-09-14T20:51:14.104Z,66.99
2018-09-14T20:53:43.217Z,66.93
2018-09-14T20:56:11.699Z,66.86
2018-09-14T20:58:40.073Z,66.80
2018-09-14T21:01:08.432Z,66.87
2018-09-14T21:03:36.783Z,67.18
2018-09-14T21:06:05.125Z,66.93
2018-09-14T21:08:33.575Z,66.95
2018-09-14T21:11:01.927Z,66.97
2018-09-14T21:13:30.284Z,66.90
2018-09-14T21:15:58.863Z,66.79
2018-09-14T21:18:27.248Z,66.57
2018-09-14T21:20:55.636Z,66.92
2018-09-14T21:23:24.040Z,66.81
2018-09-14T21:25:52.487Z,67.51
2018-09-14T21:28:20.878Z,67.54
2018-09-14T21:30:49.348Z,67.21
2018-09-14T21:33:17.725Z,67.51
2018-09-14T21:35:46.104Z,67.44
2018-09-14T21:38:14.684Z,67.82
2018-09-14T21:40:43.040Z,67.34
2018-09-14T21:43:11.416Z,67.79
2018-09-14T21:45:39.807Z,67.98
2018-09-14T21:48:08.198Z,67.90
2018-09-14T21:50:36.580Z,67.73
2018-09-14T21:53:04.944Z,67.70
2018-09-14T21:55:33.274Z,67.76
2018-09-14T21:58:01.636Z,67.84
2018-09-14T22:00:35.697Z,67.90
2018-09-14T22:03:04.113Z,68.47
2018-09-14T22:05:32.458Z,68.73
2018-09-14T22:08:00.864Z,68.16
2018-09-14T22:10:29.203Z,68.60
2018-09-14T22:12:57.615Z,68.67
2018-09-14T22:15:25.987Z,68.24
2018-09-14T22:17:54.378Z,68.53
2018-09-14T22:20:22.760Z,68.01
2018-09-14T22:22:52.040Z,67.92
2018-09-14T22:25:20.459Z,68.27
2018-09-14T22:27:48.860Z,68.60
2018-09-14T22:30:17.223Z,68.54
2018-09-14T22:32:45.555Z,68.60
2018-09-14T22:35:14.080Z,68.85
2018-09-14T22:37:42.924Z,68.61
2018-09-14T22:40:11.266Z,68.97
2018-09-14T22:42:39.595Z,68.98
2018-09-14T22:45:08.278Z,68.83
2018-09-14T22:47:36.722Z,68.87
2018-09-14T22:50:05.118Z,69.05
2018-09-14T22:52:33.707Z,68.88
2018-09-14T22:55:02.131Z,69.52
2018-09-14T22:57:30.473Z,69.08
2018-09-14T22:59:58.921Z,69.27
2018-09-14T23:02:27.348Z,69.18
2018-09-14T23:04:55.708Z,69.26
2018-09-14T23:07:24.295Z,69.41
2018-09-14T23:09:52.626Z,69.85
2018-09-14T23:12:21.066Z,69.44
2018-09-14T23:14:50.196Z,69.79
2018-09-14T23:17:18.621Z,69.19
2018-09-14T23:19:47.023Z,69.38
2018-09-14T23:22:15.582Z,69.38
2018-09-14T23:24:44.582Z,69.07
2018-09-14T23:27:12.898Z,69.47
2018-09-14T23:29:41.430Z,69.73
2018-09-14T23:32:09.781Z,69.89
2018-09-14T23:34:38.194Z,69.80
2018-09-14T23:37:06.767Z,69.71
2018-09-14T23:39:35.195Z,69.11
2018-09-14T23:42:03.544Z,69.05
2018-09-14T23:44:31.962Z,69.58
2018-09-14T23:47:00.318Z,69.25
2018-09-14T23:49:28.668Z,69.76
2018-09-14T23:51:57.092Z,69.88
2018-09-14T23:54:25.424Z,69.84
2018-09-14T23:56:53.804Z,69.34
2018-09-14T23:59:22.224Z,69.62
